FD206 YSTH-YHOT
Flight info
| Callsign | FD206 |
|---|---|
| Flight time | 1h 12m |
| Altitude | 20000 |
| Route | YSTH DCT MOTRA DCT ESL/N0273F260 DCT YHOT |
| Aircraft | PC12/L-SDFGRWY/S |
Departure
| Time | 2026-04-28 07:07 |
|---|---|
| Airport | St Helens Airport (YSTH) |
Arrival
| Time | 2026-04-28 08:19 |
|---|---|
| Airport | Mount Hotham Airport (YHOT) |
| Time | Latitude | Longitude | Altitude | Speed | Heading |
|---|---|---|---|---|---|
| 2026-04-28 06:56 | -41.33651 | 148.28111 | 166 ft | 0 kts | 3° |
| 2026-04-28 07:04 | -41.33653 | 148.28105 | 170 ft | 2 kts | 180° |
| 2026-04-28 07:04 | -41.33676 | 148.28108 | 168 ft | 8 kts | 182° |
| 2026-04-28 07:05 | -41.33749 | 148.28094 | 171 ft | 9 kts | 238° |
| 2026-04-28 07:05 | -41.33742 | 148.27952 | 174 ft | 15 kts | 278° |
| 2026-04-28 07:05 | -41.33732 | 148.27860 | 176 ft | 2 kts | 199° |
| 2026-04-28 07:05 | -41.33740 | 148.27918 | 175 ft | 15 kts | 92° |
| 2026-04-28 07:06 | -41.33758 | 148.28218 | 165 ft | 62 kts | 92° |
| 2026-04-28 07:06 | -41.33825 | 148.29047 | 175 ft | 110 kts | 89° |
| 2026-04-28 07:06 | -41.33823 | 148.29817 | 230 ft | 136 kts | 84° |
| 2026-04-28 07:06 | -41.33808 | 148.31264 | 361 ft | 181 kts | 85° |
| 2026-04-28 07:07 | -41.33834 | 148.33020 | 719 ft | 195 kts | 84° |
| 2026-04-28 07:07 | -41.33811 | 148.34957 | 731 ft | 220 kts | 84° |
| 2026-04-28 07:07 | -41.33793 | 148.37032 | 733 ft | 225 kts | 86° |
| 2026-04-28 07:07 | -41.33312 | 148.38948 | 658 ft | 218 kts | 44° |
| 2026-04-28 07:08 | -41.32105 | 148.39739 | 1171 ft | 179 kts | 0° |
| 2026-04-28 07:08 | -41.30955 | 148.39775 | 2072 ft | 151 kts | 346° |
| 2026-04-28 07:08 | -41.30016 | 148.39597 | 3122 ft | 127 kts | 340° |
| 2026-04-28 07:08 | -41.29166 | 148.39403 | 3918 ft | 122 kts | 328° |
| 2026-04-28 07:09 | -41.28380 | 148.38945 | 4619 ft | 125 kts | 325° |
| 2026-04-28 07:09 | -41.27570 | 148.38471 | 5329 ft | 129 kts | 325° |
| 2026-04-28 07:09 | -41.26739 | 148.37987 | 6037 ft | 133 kts | 328° |
| 2026-04-28 07:09 | -41.25837 | 148.37589 | 6749 ft | 139 kts | 332° |
| 2026-04-28 07:10 | -41.24909 | 148.37207 | 7441 ft | 140 kts | 332° |
| 2026-04-28 07:10 | -41.23970 | 148.36823 | 8158 ft | 142 kts | 333° |
| 2026-04-28 07:10 | -41.23022 | 148.36438 | 8885 ft | 143 kts | 333° |
| 2026-04-28 07:10 | -41.22065 | 148.36049 | 9618 ft | 145 kts | 334° |
| 2026-04-28 07:11 | -41.21098 | 148.35657 | 10338 ft | 146 kts | 334° |
| 2026-04-28 07:11 | -41.20139 | 148.35269 | 11012 ft | 146 kts | 334° |
| 2026-04-28 07:11 | -41.19161 | 148.34872 | 11666 ft | 148 kts | 334° |
| 2026-04-28 07:11 | -41.18175 | 148.34473 | 12339 ft | 149 kts | 334° |
| 2026-04-28 07:12 | -41.17179 | 148.34069 | 13043 ft | 150 kts | 334° |
| 2026-04-28 07:12 | -41.16181 | 148.33665 | 13734 ft | 151 kts | 334° |
| 2026-04-28 07:12 | -41.15172 | 148.33256 | 14380 ft | 152 kts | 334° |
| 2026-04-28 07:12 | -41.14156 | 148.32846 | 15002 ft | 153 kts | 334° |
| 2026-04-28 07:13 | -41.13133 | 148.32431 | 15627 ft | 154 kts | 334° |
| 2026-04-28 07:13 | -41.12104 | 148.32016 | 16263 ft | 155 kts | 334° |
| 2026-04-28 07:13 | -41.11069 | 148.31597 | 16895 ft | 156 kts | 334° |
| 2026-04-28 07:13 | -41.10027 | 148.31176 | 17536 ft | 157 kts | 334° |
| 2026-04-28 07:14 | -41.08976 | 148.30751 | 18180 ft | 158 kts | 335° |
| 2026-04-28 07:14 | -41.07915 | 148.30323 | 18779 ft | 160 kts | 335° |
| 2026-04-28 07:14 | -41.06845 | 148.29890 | 19328 ft | 161 kts | 334° |
| 2026-04-28 07:14 | -41.05760 | 148.29451 | 19837 ft | 166 kts | 334° |
| 2026-04-28 07:15 | -41.04599 | 148.28975 | 20067 ft | 187 kts | 335° |
| 2026-04-28 07:15 | -41.03266 | 148.28430 | 20064 ft | 211 kts | 336° |
| 2026-04-28 07:15 | -41.01831 | 148.27861 | 20130 ft | 222 kts | 336° |
| 2026-04-28 07:15 | -41.00332 | 148.27264 | 20215 ft | 229 kts | 336° |
| 2026-04-28 07:16 | -40.98780 | 148.26638 | 20227 ft | 237 kts | 336° |
| 2026-04-28 07:16 | -40.97188 | 148.25997 | 20227 ft | 241 kts | 337° |
| 2026-04-28 07:16 | -40.95576 | 148.25350 | 20225 ft | 243 kts | 337° |
| 2026-04-28 07:16 | -40.93953 | 148.24698 | 20204 ft | 245 kts | 337° |
| 2026-04-28 07:17 | -40.92314 | 148.24040 | 20209 ft | 247 kts | 338° |
| 2026-04-28 07:17 | -40.90664 | 148.23377 | 20209 ft | 248 kts | 338° |
| 2026-04-28 07:17 | -40.89006 | 148.22712 | 20215 ft | 249 kts | 338° |
| 2026-04-28 07:17 | -40.87343 | 148.22045 | 20221 ft | 249 kts | 338° |
| 2026-04-28 07:18 | -40.85680 | 148.21377 | 20223 ft | 249 kts | 338° |
| 2026-04-28 07:18 | -40.84013 | 148.20709 | 20222 ft | 249 kts | 338° |
| 2026-04-28 07:18 | -40.82374 | 148.20053 | 20224 ft | 249 kts | 338° |
| 2026-04-28 07:18 | -40.80713 | 148.19388 | 20224 ft | 249 kts | 338° |
| 2026-04-28 07:19 | -40.79049 | 148.18722 | 20228 ft | 249 kts | 338° |
| 2026-04-28 07:19 | -40.77388 | 148.18057 | 20228 ft | 249 kts | 338° |
| 2026-04-28 07:19 | -40.75726 | 148.17392 | 20228 ft | 250 kts | 338° |
| 2026-04-28 07:19 | -40.74063 | 148.16728 | 20227 ft | 250 kts | 338° |
| 2026-04-28 07:20 | -40.72403 | 148.16065 | 20223 ft | 250 kts | 338° |
| 2026-04-28 07:20 | -40.70734 | 148.15399 | 20222 ft | 251 kts | 338° |
| 2026-04-28 07:20 | -40.69060 | 148.14731 | 20223 ft | 251 kts | 338° |
| 2026-04-28 07:20 | -40.67389 | 148.14065 | 20224 ft | 251 kts | 338° |
| 2026-04-28 07:21 | -40.65716 | 148.13398 | 20219 ft | 251 kts | 338° |
| 2026-04-28 07:21 | -40.64044 | 148.12732 | 20227 ft | 251 kts | 338° |
| 2026-04-28 07:21 | -40.62389 | 148.12073 | 20227 ft | 251 kts | 338° |
| 2026-04-28 07:22 | -40.59039 | 148.10740 | 20230 ft | 251 kts | 338° |
| 2026-04-28 07:22 | -40.57364 | 148.10075 | 20228 ft | 251 kts | 338° |
| 2026-04-28 07:22 | -40.55689 | 148.09409 | 20230 ft | 251 kts | 338° |
| 2026-04-28 07:22 | -40.54014 | 148.08744 | 20236 ft | 251 kts | 338° |
| 2026-04-28 07:23 | -40.52341 | 148.08080 | 20222 ft | 251 kts | 338° |
| 2026-04-28 07:23 | -40.50663 | 148.07414 | 20233 ft | 251 kts | 338° |
| 2026-04-28 07:23 | -40.48984 | 148.06748 | 20233 ft | 252 kts | 338° |
| 2026-04-28 07:23 | -40.47299 | 148.06081 | 20225 ft | 253 kts | 338° |
| 2026-04-28 07:24 | -40.45613 | 148.05413 | 20229 ft | 253 kts | 338° |
| 2026-04-28 07:24 | -40.43930 | 148.04747 | 20229 ft | 253 kts | 338° |
| 2026-04-28 07:24 | -40.42268 | 148.04089 | 20231 ft | 253 kts | 338° |
| 2026-04-28 07:24 | -40.40580 | 148.03422 | 20232 ft | 253 kts | 338° |
| 2026-04-28 07:25 | -40.38894 | 148.02755 | 20227 ft | 253 kts | 338° |
| 2026-04-28 07:25 | -40.37208 | 148.02090 | 20233 ft | 253 kts | 338° |
| 2026-04-28 07:25 | -40.35523 | 148.01424 | 20236 ft | 253 kts | 338° |
| 2026-04-28 07:25 | -40.33841 | 148.00761 | 20236 ft | 253 kts | 338° |
| 2026-04-28 07:26 | -40.32159 | 148.00097 | 20236 ft | 253 kts | 338° |
| 2026-04-28 07:26 | -40.30476 | 147.99433 | 20236 ft | 253 kts | 338° |
| 2026-04-28 07:26 | -40.28792 | 147.98769 | 20235 ft | 253 kts | 338° |
| 2026-04-28 07:26 | -40.27103 | 147.98104 | 20242 ft | 254 kts | 338° |
| 2026-04-28 07:27 | -40.25411 | 147.97439 | 20240 ft | 254 kts | 338° |
| 2026-04-28 07:27 | -40.23719 | 147.96773 | 20242 ft | 254 kts | 338° |
| 2026-04-28 07:27 | -40.22024 | 147.96107 | 20241 ft | 254 kts | 338° |
| 2026-04-28 07:27 | -40.20323 | 147.95439 | 20242 ft | 254 kts | 338° |
| 2026-04-28 07:28 | -40.18630 | 147.94773 | 20243 ft | 254 kts | 338° |
| 2026-04-28 07:28 | -40.16934 | 147.94108 | 20243 ft | 254 kts | 338° |
| 2026-04-28 07:28 | -40.15261 | 147.93451 | 20244 ft | 254 kts | 338° |
| 2026-04-28 07:28 | -40.13564 | 147.92786 | 20244 ft | 254 kts | 338° |
| 2026-04-28 07:29 | -40.11870 | 147.92123 | 20247 ft | 254 kts | 338° |
| 2026-04-28 07:29 | -40.10179 | 147.91460 | 20247 ft | 254 kts | 338° |
| 2026-04-28 07:29 | -40.08583 | 147.90835 | 20246 ft | 254 kts | 338° |
| 2026-04-28 07:29 | -40.06891 | 147.90173 | 20246 ft | 253 kts | 338° |
| 2026-04-28 07:30 | -40.05200 | 147.89511 | 20247 ft | 253 kts | 338° |
| 2026-04-28 07:30 | -40.03512 | 147.88851 | 20247 ft | 253 kts | 338° |
| 2026-04-28 07:30 | -40.01824 | 147.88191 | 20248 ft | 254 kts | 338° |
| 2026-04-28 07:30 | -40.00133 | 147.87531 | 20248 ft | 254 kts | 338° |
| 2026-04-28 07:31 | -39.98444 | 147.86872 | 20247 ft | 253 kts | 338° |
| 2026-04-28 07:31 | -39.96753 | 147.86212 | 20247 ft | 253 kts | 338° |
| 2026-04-28 07:31 | -39.95063 | 147.85553 | 20251 ft | 254 kts | 338° |
| 2026-04-28 07:31 | -39.93394 | 147.84903 | 20250 ft | 253 kts | 338° |
| 2026-04-28 07:32 | -39.91704 | 147.84244 | 20252 ft | 254 kts | 338° |
| 2026-04-28 07:32 | -39.90011 | 147.83585 | 20252 ft | 253 kts | 338° |
| 2026-04-28 07:32 | -39.88323 | 147.82929 | 20251 ft | 253 kts | 338° |
| 2026-04-28 07:32 | -39.86635 | 147.82273 | 20253 ft | 253 kts | 338° |
| 2026-04-28 07:33 | -39.84945 | 147.81614 | 20250 ft | 254 kts | 338° |
| 2026-04-28 07:33 | -39.83250 | 147.80956 | 20250 ft | 255 kts | 338° |
| 2026-04-28 07:33 | -39.81551 | 147.80297 | 20249 ft | 255 kts | 338° |
| 2026-04-28 07:33 | -39.79850 | 147.79637 | 20249 ft | 255 kts | 338° |
| 2026-04-28 07:34 | -39.78151 | 147.78977 | 20252 ft | 255 kts | 338° |
| 2026-04-28 07:34 | -39.76448 | 147.78317 | 20252 ft | 255 kts | 338° |
| 2026-04-28 07:34 | -39.74749 | 147.77658 | 20253 ft | 255 kts | 338° |
| 2026-04-28 07:34 | -39.73048 | 147.77000 | 20253 ft | 255 kts | 338° |
| 2026-04-28 07:35 | -39.71345 | 147.76340 | 20251 ft | 255 kts | 338° |
| 2026-04-28 07:35 | -39.69645 | 147.75683 | 20251 ft | 255 kts | 338° |
| 2026-04-28 07:35 | -39.67947 | 147.75026 | 20253 ft | 255 kts | 338° |
| 2026-04-28 07:35 | -39.66244 | 147.74368 | 20253 ft | 255 kts | 338° |
| 2026-04-28 07:36 | -39.64543 | 147.73711 | 20252 ft | 255 kts | 338° |
| 2026-04-28 07:36 | -39.62838 | 147.73052 | 20257 ft | 256 kts | 338° |
| 2026-04-28 07:36 | -39.61135 | 147.72395 | 20258 ft | 256 kts | 338° |
| 2026-04-28 07:36 | -39.59449 | 147.71745 | 20258 ft | 256 kts | 338° |
| 2026-04-28 07:37 | -39.57739 | 147.71085 | 20257 ft | 256 kts | 338° |
| 2026-04-28 07:37 | -39.56030 | 147.70427 | 20260 ft | 256 kts | 338° |
| 2026-04-28 07:37 | -39.54320 | 147.69768 | 20260 ft | 256 kts | 338° |
| 2026-04-28 07:37 | -39.52611 | 147.69110 | 20260 ft | 256 kts | 338° |
| 2026-04-28 07:38 | -39.50901 | 147.68452 | 20259 ft | 256 kts | 338° |
| 2026-04-28 07:38 | -39.49190 | 147.67794 | 20259 ft | 256 kts | 338° |
| 2026-04-28 07:38 | -39.47481 | 147.67138 | 20259 ft | 256 kts | 338° |
| 2026-04-28 07:38 | -39.45773 | 147.66481 | 20259 ft | 256 kts | 338° |
| 2026-04-28 07:39 | -39.44060 | 147.65824 | 20261 ft | 256 kts | 338° |
| 2026-04-28 07:39 | -39.42352 | 147.65169 | 20260 ft | 256 kts | 338° |
| 2026-04-28 07:39 | -39.40664 | 147.64521 | 20260 ft | 257 kts | 338° |
| 2026-04-28 07:39 | -39.38949 | 147.63863 | 20260 ft | 257 kts | 338° |
| 2026-04-28 07:40 | -39.37233 | 147.63206 | 20258 ft | 257 kts | 338° |
| 2026-04-28 07:40 | -39.35511 | 147.62546 | 20258 ft | 257 kts | 338° |
| 2026-04-28 07:40 | -39.33792 | 147.61888 | 20258 ft | 258 kts | 338° |
| 2026-04-28 07:40 | -39.32072 | 147.61230 | 20258 ft | 258 kts | 338° |
| 2026-04-28 07:41 | -39.30353 | 147.60572 | 20261 ft | 258 kts | 338° |
| 2026-04-28 07:41 | -39.28633 | 147.59916 | 20261 ft | 258 kts | 338° |
| 2026-04-28 07:41 | -39.26917 | 147.59260 | 20261 ft | 258 kts | 338° |
| 2026-04-28 07:41 | -39.25194 | 147.58602 | 20261 ft | 258 kts | 338° |
| 2026-04-28 07:42 | -39.23473 | 147.57945 | 20260 ft | 258 kts | 338° |
| 2026-04-28 07:42 | -39.21754 | 147.57290 | 20255 ft | 258 kts | 338° |
| 2026-04-28 07:42 | -39.20034 | 147.56634 | 20260 ft | 258 kts | 339° |
| 2026-04-28 07:42 | -39.18312 | 147.55978 | 20259 ft | 258 kts | 339° |
| 2026-04-28 07:43 | -39.16608 | 147.55329 | 20261 ft | 259 kts | 339° |
| 2026-04-28 07:43 | -39.14860 | 147.54663 | 20259 ft | 259 kts | 339° |
| 2026-04-28 07:43 | -39.13133 | 147.54007 | 20261 ft | 259 kts | 339° |
| 2026-04-28 07:43 | -39.11429 | 147.53359 | 20260 ft | 259 kts | 339° |
| 2026-04-28 07:44 | -39.09678 | 147.52693 | 20263 ft | 259 kts | 339° |
| 2026-04-28 07:44 | -39.07974 | 147.52046 | 20264 ft | 259 kts | 339° |
| 2026-04-28 07:44 | -39.06245 | 147.51390 | 20264 ft | 259 kts | 339° |
| 2026-04-28 07:44 | -39.04515 | 147.50733 | 20264 ft | 259 kts | 339° |
| 2026-04-28 07:45 | -39.02788 | 147.50078 | 20262 ft | 259 kts | 339° |
| 2026-04-28 07:45 | -39.01056 | 147.49421 | 20262 ft | 259 kts | 339° |
| 2026-04-28 07:45 | -38.99327 | 147.48766 | 20262 ft | 259 kts | 339° |
| 2026-04-28 07:45 | -38.97601 | 147.48112 | 20264 ft | 259 kts | 339° |
| 2026-04-28 07:46 | -38.95871 | 147.47458 | 20264 ft | 259 kts | 339° |
| 2026-04-28 07:46 | -38.94139 | 147.46803 | 20264 ft | 259 kts | 339° |
| 2026-04-28 07:46 | -38.92408 | 147.46148 | 20264 ft | 260 kts | 339° |
| 2026-04-28 07:46 | -38.90675 | 147.45493 | 20264 ft | 260 kts | 339° |
| 2026-04-28 07:47 | -38.88942 | 147.44839 | 20266 ft | 260 kts | 339° |
| 2026-04-28 07:47 | -38.87210 | 147.44184 | 20266 ft | 260 kts | 339° |
| 2026-04-28 07:47 | -38.85476 | 147.43530 | 20266 ft | 260 kts | 339° |
| 2026-04-28 07:47 | -38.83742 | 147.42876 | 20266 ft | 260 kts | 339° |
| 2026-04-28 07:48 | -38.82009 | 147.42223 | 20269 ft | 260 kts | 339° |
| 2026-04-28 07:48 | -38.80273 | 147.41569 | 20269 ft | 260 kts | 339° |
| 2026-04-28 07:48 | -38.78563 | 147.40925 | 20269 ft | 260 kts | 339° |
| 2026-04-28 07:48 | -38.76830 | 147.40273 | 20262 ft | 260 kts | 339° |
| 2026-04-28 07:49 | -38.75096 | 147.39621 | 20264 ft | 260 kts | 339° |
| 2026-04-28 07:49 | -38.73358 | 147.38966 | 20264 ft | 261 kts | 339° |
| 2026-04-28 07:49 | -38.71613 | 147.38311 | 20265 ft | 261 kts | 339° |
| 2026-04-28 07:49 | -38.69870 | 147.37656 | 20264 ft | 261 kts | 339° |
| 2026-04-28 07:50 | -38.68126 | 147.37002 | 20270 ft | 261 kts | 339° |
| 2026-04-28 07:50 | -38.66387 | 147.36349 | 20270 ft | 260 kts | 339° |
| 2026-04-28 07:50 | -38.64648 | 147.35697 | 20270 ft | 260 kts | 339° |
| 2026-04-28 07:50 | -38.62908 | 147.35045 | 20270 ft | 260 kts | 339° |
| 2026-04-28 07:51 | -38.61169 | 147.34393 | 20266 ft | 260 kts | 339° |
| 2026-04-28 07:51 | -38.59429 | 147.33742 | 20266 ft | 260 kts | 339° |
| 2026-04-28 07:51 | -38.57690 | 147.33091 | 20265 ft | 260 kts | 339° |
| 2026-04-28 07:51 | -38.55952 | 147.32440 | 20266 ft | 260 kts | 339° |
| 2026-04-28 07:52 | -38.54212 | 147.31790 | 20268 ft | 260 kts | 339° |
| 2026-04-28 07:52 | -38.52470 | 147.31139 | 20268 ft | 261 kts | 339° |
| 2026-04-28 07:52 | -38.50725 | 147.30486 | 20268 ft | 261 kts | 339° |
| 2026-04-28 07:52 | -38.48978 | 147.29835 | 20268 ft | 262 kts | 339° |
| 2026-04-28 07:53 | -38.47229 | 147.29182 | 20268 ft | 262 kts | 339° |
| 2026-04-28 07:53 | -38.46071 | 147.28750 | 20269 ft | 262 kts | 339° |
| 2026-04-28 07:53 | -38.44320 | 147.28097 | 20269 ft | 262 kts | 339° |
| 2026-04-28 07:53 | -38.42570 | 147.27445 | 20269 ft | 262 kts | 339° |
| 2026-04-28 07:54 | -38.40253 | 147.26582 | 20270 ft | 262 kts | 339° |
| 2026-04-28 07:54 | -38.38503 | 147.25931 | 20270 ft | 262 kts | 339° |
| 2026-04-28 07:54 | -38.37318 | 147.25490 | 20270 ft | 262 kts | 339° |
| 2026-04-28 07:54 | -38.34999 | 147.24627 | 20270 ft | 262 kts | 339° |
| 2026-04-28 07:55 | -38.33819 | 147.24189 | 20273 ft | 262 kts | 339° |
| 2026-04-28 07:55 | -38.32070 | 147.23539 | 20268 ft | 262 kts | 339° |
| 2026-04-28 07:55 | -38.30315 | 147.22887 | 20270 ft | 263 kts | 339° |
| 2026-04-28 07:55 | -38.28560 | 147.22235 | 20271 ft | 263 kts | 339° |
| 2026-04-28 07:56 | -38.26800 | 147.21583 | 20268 ft | 263 kts | 339° |
| 2026-04-28 07:56 | -38.25043 | 147.20931 | 20269 ft | 263 kts | 339° |
| 2026-04-28 07:56 | -38.23283 | 147.20279 | 20269 ft | 263 kts | 339° |
| 2026-04-28 07:56 | -38.21545 | 147.19635 | 20269 ft | 263 kts | 339° |
| 2026-04-28 07:57 | -38.19785 | 147.18984 | 20274 ft | 263 kts | 339° |
| 2026-04-28 07:57 | -38.18026 | 147.18333 | 20274 ft | 263 kts | 339° |
| 2026-04-28 07:57 | -38.16264 | 147.17681 | 20274 ft | 263 kts | 339° |
| 2026-04-28 07:57 | -38.14503 | 147.17030 | 20274 ft | 263 kts | 339° |
| 2026-04-28 07:58 | -38.12742 | 147.16379 | 20269 ft | 263 kts | 339° |
| 2026-04-28 07:58 | -38.10943 | 147.15909 | 20268 ft | 268 kts | 353° |
| 2026-04-28 07:58 | -38.09076 | 147.16149 | 20266 ft | 274 kts | 10° |
| 2026-04-28 07:58 | -38.07280 | 147.17005 | 20270 ft | 277 kts | 19° |
| 2026-04-28 07:59 | -38.05504 | 147.17979 | 20276 ft | 278 kts | 19° |
| 2026-04-28 07:59 | -38.03724 | 147.18938 | 20278 ft | 278 kts | 19° |
| 2026-04-28 07:59 | -38.01940 | 147.19891 | 20279 ft | 278 kts | 19° |
| 2026-04-28 07:59 | -38.00152 | 147.20849 | 20280 ft | 279 kts | 19° |
| 2026-04-28 08:00 | -37.98365 | 147.21806 | 20280 ft | 278 kts | 19° |
| 2026-04-28 08:00 | -37.96591 | 147.22758 | 20280 ft | 278 kts | 19° |
| 2026-04-28 08:00 | -37.94805 | 147.23714 | 20280 ft | 279 kts | 19° |
| 2026-04-28 08:00 | -37.93036 | 147.24660 | 20281 ft | 279 kts | 19° |
| 2026-04-28 08:01 | -37.91245 | 147.25618 | 20282 ft | 279 kts | 19° |
| 2026-04-28 08:01 | -37.89455 | 147.26575 | 20285 ft | 280 kts | 19° |
| 2026-04-28 08:01 | -37.87661 | 147.27534 | 20286 ft | 280 kts | 19° |
| 2026-04-28 08:01 | -37.85868 | 147.28491 | 20286 ft | 280 kts | 19° |
| 2026-04-28 08:02 | -37.84075 | 147.29448 | 20286 ft | 280 kts | 19° |
| 2026-04-28 08:02 | -37.82280 | 147.30406 | 20289 ft | 280 kts | 19° |
| 2026-04-28 08:02 | -37.80486 | 147.31362 | 20289 ft | 280 kts | 19° |
| 2026-04-28 08:02 | -37.78692 | 147.32318 | 20289 ft | 280 kts | 19° |
| 2026-04-28 08:03 | -37.76899 | 147.33274 | 20292 ft | 280 kts | 19° |
| 2026-04-28 08:03 | -37.75105 | 147.34228 | 20292 ft | 280 kts | 19° |
| 2026-04-28 08:03 | -37.73311 | 147.35183 | 20292 ft | 280 kts | 19° |
| 2026-04-28 08:03 | -37.71502 | 147.36144 | 20128 ft | 285 kts | 19° |
| 2026-04-28 08:04 | -37.69652 | 147.37126 | 19785 ft | 291 kts | 19° |
| 2026-04-28 08:04 | -37.67773 | 147.38125 | 19410 ft | 294 kts | 20° |
| 2026-04-28 08:04 | -37.65881 | 147.39131 | 19021 ft | 295 kts | 20° |
| 2026-04-28 08:04 | -37.63991 | 147.40133 | 18625 ft | 294 kts | 20° |
| 2026-04-28 08:05 | -37.62108 | 147.41132 | 18203 ft | 292 kts | 20° |
| 2026-04-28 08:05 | -37.60245 | 147.42120 | 17818 ft | 290 kts | 20° |
| 2026-04-28 08:05 | -37.58412 | 147.43090 | 17432 ft | 288 kts | 20° |
| 2026-04-28 08:05 | -37.56570 | 147.44066 | 17060 ft | 287 kts | 20° |
| 2026-04-28 08:06 | -37.54731 | 147.45039 | 16560 ft | 289 kts | 20° |
| 2026-04-28 08:06 | -37.52902 | 147.46008 | 16093 ft | 278 kts | 20° |
| 2026-04-28 08:06 | -37.51142 | 147.46940 | 15715 ft | 273 kts | 19° |
| 2026-04-28 08:06 | -37.49392 | 147.47864 | 15351 ft | 272 kts | 19° |
| 2026-04-28 08:07 | -37.47643 | 147.48785 | 14999 ft | 272 kts | 19° |
| 2026-04-28 08:07 | -37.45896 | 147.49700 | 14642 ft | 272 kts | 19° |
| 2026-04-28 08:07 | -37.44158 | 147.50623 | 14282 ft | 269 kts | 19° |
| 2026-04-28 08:07 | -37.42440 | 147.51533 | 13906 ft | 267 kts | 19° |
| 2026-04-28 08:08 | -37.40733 | 147.52430 | 13546 ft | 265 kts | 19° |
| 2026-04-28 08:08 | -37.39036 | 147.53323 | 13200 ft | 263 kts | 19° |
| 2026-04-28 08:08 | -37.37372 | 147.54198 | 12857 ft | 261 kts | 19° |
| 2026-04-28 08:08 | -37.35703 | 147.55077 | 12516 ft | 259 kts | 19° |
| 2026-04-28 08:09 | -37.34046 | 147.55949 | 12181 ft | 257 kts | 19° |
| 2026-04-28 08:09 | -37.32405 | 147.56812 | 11840 ft | 255 kts | 19° |
| 2026-04-28 08:09 | -37.30777 | 147.57668 | 11511 ft | 253 kts | 19° |
| 2026-04-28 08:09 | -37.29155 | 147.58519 | 11177 ft | 252 kts | 20° |
| 2026-04-28 08:10 | -37.27548 | 147.59360 | 10847 ft | 248 kts | 20° |
| 2026-04-28 08:10 | -37.25959 | 147.60193 | 10522 ft | 247 kts | 20° |
| 2026-04-28 08:10 | -37.24379 | 147.61027 | 10193 ft | 246 kts | 20° |
| 2026-04-28 08:10 | -37.22802 | 147.61821 | 9777 ft | 243 kts | 14° |
| 2026-04-28 08:11 | -37.21141 | 147.61839 | 9427 ft | 239 kts | 346° |
| 2026-04-28 08:11 | -37.19649 | 147.61006 | 9032 ft | 230 kts | 323° |
| 2026-04-28 08:11 | -37.18547 | 147.59561 | 8715 ft | 234 kts | 302° |
| 2026-04-28 08:11 | -37.17701 | 147.57892 | 8499 ft | 216 kts | 301° |
| 2026-04-28 08:12 | -37.16914 | 147.56378 | 8237 ft | 198 kts | 302° |
| 2026-04-28 08:12 | -37.16192 | 147.55016 | 8000 ft | 178 kts | 302° |
| 2026-04-28 08:12 | -37.15533 | 147.53771 | 7788 ft | 163 kts | 302° |
| 2026-04-28 08:12 | -37.14949 | 147.52666 | 7581 ft | 146 kts | 302° |
| 2026-04-28 08:13 | -37.14431 | 147.51684 | 7390 ft | 127 kts | 302° |
| 2026-04-28 08:13 | -37.13966 | 147.50803 | 7226 ft | 118 kts | 302° |
| 2026-04-28 08:13 | -37.13514 | 147.49944 | 7079 ft | 118 kts | 301° |
| 2026-04-28 08:13 | -37.13070 | 147.49106 | 6927 ft | 113 kts | 302° |
| 2026-04-28 08:14 | -37.12634 | 147.48278 | 6791 ft | 117 kts | 302° |
| 2026-04-28 08:14 | -37.12176 | 147.47412 | 6637 ft | 119 kts | 302° |
| 2026-04-28 08:14 | -37.11743 | 147.46593 | 6494 ft | 108 kts | 302° |
| 2026-04-28 08:14 | -37.11352 | 147.45856 | 6339 ft | 96 kts | 302° |
| 2026-04-28 08:15 | -37.10992 | 147.45173 | 6213 ft | 92 kts | 302° |
| 2026-04-28 08:15 | -37.10643 | 147.44513 | 6100 ft | 91 kts | 301° |
| 2026-04-28 08:15 | -37.10288 | 147.43842 | 5991 ft | 93 kts | 301° |
| 2026-04-28 08:15 | -37.09941 | 147.43188 | 5866 ft | 88 kts | 301° |
| 2026-04-28 08:16 | -37.09603 | 147.42548 | 5763 ft | 91 kts | 301° |
| 2026-04-28 08:16 | -37.09248 | 147.41878 | 5645 ft | 92 kts | 300° |
| 2026-04-28 08:16 | -37.08895 | 147.41210 | 5526 ft | 93 kts | 301° |
| 2026-04-28 08:16 | -37.08536 | 147.40532 | 5401 ft | 93 kts | 302° |
| 2026-04-28 08:17 | -37.08178 | 147.39860 | 5277 ft | 91 kts | 302° |
| 2026-04-28 08:17 | -37.07836 | 147.39213 | 5163 ft | 88 kts | 301° |
| 2026-04-28 08:17 | -37.07487 | 147.38554 | 5049 ft | 92 kts | 301° |
| 2026-04-28 08:17 | -37.07136 | 147.37893 | 4928 ft | 89 kts | 301° |
| 2026-04-28 08:18 | -37.06803 | 147.37269 | 4806 ft | 84 kts | 300° |
| 2026-04-28 08:18 | -37.06482 | 147.36623 | 4627 ft | 90 kts | 292° |
| 2026-04-28 08:18 | -37.06173 | 147.35989 | 4563 ft | 85 kts | 302° |
| 2026-04-28 08:18 | -37.05826 | 147.35339 | 4460 ft | 93 kts | 298° |
| 2026-04-28 08:19 | -37.05445 | 147.34662 | 4372 ft | 92 kts | 306° |
| 2026-04-28 08:19 | -37.05098 | 147.34054 | 4255 ft | 80 kts | 299° |
| 2026-04-28 08:19 | -37.04888 | 147.33648 | 4250 ft | 20 kts | 292° |
| 2026-04-28 08:19 | -37.04938 | 147.33589 | 4249 ft | 24 kts | 175° |
| 2026-04-28 08:20 | -37.05056 | 147.33784 | 4250 ft | 27 kts | 124° |
| 2026-04-28 08:20 | -37.05110 | 147.33801 | 4250 ft | 1 kts | 212° |
| 2026-04-28 08:20 | -37.05114 | 147.33797 | 4250 ft | 0 kts | 212° |